createdAt,value
2022-12-12T00:02:02.612Z,32.50
2022-12-12T00:04:28.967Z,30.30
2022-12-12T00:06:55.334Z,31.98
2022-12-12T00:09:21.682Z,29.70
2022-12-12T00:11:48.038Z,30.40
2022-12-12T00:14:14.378Z,30.98
2022-12-12T00:16:40.759Z,29.67
2022-12-12T00:19:07.131Z,30.58
2022-12-12T00:21:33.590Z,29.67
2022-12-12T00:23:59.945Z,32.42
2022-12-12T00:26:31.616Z,32.67
2022-12-12T00:28:59.017Z,31.65
2022-12-12T00:31:26.054Z,31.13
2022-12-12T00:33:52.526Z,29.50
2022-12-12T00:36:21.457Z,28.70
2022-12-12T00:38:48.105Z,28.92
2022-12-12T00:41:14.636Z,29.40
2022-12-12T00:43:41.066Z,31.50
2022-12-12T00:46:07.850Z,30.92
2022-12-12T00:48:34.652Z,31.65
2022-12-12T00:51:07.546Z,30.30
2022-12-12T00:53:33.915Z,28.65
2022-12-12T00:56:00.414Z,29.42
2022-12-12T00:58:27.239Z,31.02
2022-12-12T01:00:53.868Z,31.50
2022-12-12T01:03:21.109Z,31.30
2022-12-12T01:05:47.612Z,30.70
2022-12-12T01:08:14.032Z,31.10
2022-12-12T01:10:40.420Z,31.27
2022-12-12T01:13:06.819Z,30.10
2022-12-12T01:15:33.236Z,28.38
2022-12-12T01:17:59.635Z,28.30
2022-12-12T01:20:28.396Z,29.90
2022-12-12T01:22:54.847Z,29.23
2022-12-12T01:25:21.312Z,28.73
2022-12-12T01:27:47.854Z,29.25
2022-12-12T01:30:16.324Z,31.80
2022-12-12T01:32:42.703Z,29.48
2022-12-12T01:35:09.688Z,29.50
2022-12-12T01:37:36.887Z,31.15
2022-12-12T01:40:05.421Z,28.77
2022-12-12T01:42:32.080Z,30.20
2022-12-12T01:44:58.452Z,31.40
2022-12-12T01:47:25.975Z,29.85
2022-12-12T01:50:03.507Z,30.65
2022-12-12T01:52:34.528Z,30.50
2022-12-12T01:55:03.631Z,29.65
2022-12-12T01:57:37.282Z,28.42
2022-12-12T02:00:06.163Z,30.05
2022-12-12T02:02:32.611Z,29.10
2022-12-12T02:05:00.277Z,30.33
2022-12-12T02:07:26.647Z,31.92
2022-12-12T02:09:53.019Z,31.73
2022-12-12T02:12:19.399Z,32.78
2022-12-12T02:14:48.788Z,32.60
2022-12-12T02:17:28.924Z,29.83
2022-12-12T02:20:14.062Z,32.78
2022-12-12T02:23:02.116Z,29.88
2022-12-12T02:25:36.641Z,33.38
2022-12-12T02:28:21.338Z,31.17
2022-12-12T02:31:32.332Z,32.38
2022-12-12T02:34:02.334Z,31.17
2022-12-12T02:36:59.639Z,34.28
2022-12-12T02:39:44.843Z,34.38
2022-12-12T02:42:54.050Z,32.13
2022-12-12T02:45:30.193Z,33.13
2022-12-12T02:48:02.926Z,32.38
2022-12-12T02:50:31.035Z,32.20
2022-12-12T02:52:58.929Z,32.50
2022-12-12T02:55:25.333Z,38.35
2022-12-12T02:57:52.210Z,36.67
2022-12-12T03:00:19.395Z,34.00
2022-12-12T03:03:25.229Z,33.33
2022-12-12T03:06:25.723Z,31.05
2022-12-12T03:09:30.306Z,31.85
2022-12-12T03:12:08.019Z,33.72
2022-12-12T03:14:43.153Z,32.30
2022-12-12T03:17:18.042Z,33.28
2022-12-12T03:20:07.098Z,33.97
2022-12-12T03:23:15.507Z,34.55
2022-12-12T03:25:54.167Z,34.90
2022-12-12T03:28:25.715Z,34.50
2022-12-12T03:30:55.202Z,38.60
2022-12-12T03:33:36.160Z,35.78
2022-12-12T03:36:08.101Z,40.67
2022-12-12T03:38:38.680Z,36.75
2022-12-12T03:41:09.117Z,34.53
2022-12-12T03:43:39.609Z,34.15
2022-12-12T03:46:26.324Z,34.83
2022-12-12T03:49:00.030Z,36.00
2022-12-12T03:51:29.156Z,39.05
2022-12-12T03:54:08.823Z,36.97
2022-12-12T03:56:42.885Z,35.63
2022-12-12T03:59:27.137Z,34.40
2022-12-12T04:02:32.044Z,35.33
2022-12-12T04:05:18.444Z,34.65
2022-12-12T04:07:49.537Z,32.67
2022-12-12T04:10:34.580Z,34.22
2022-12-12T04:13:08.212Z,36.53
2022-12-12T04:15:54.612Z,37.58
2022-12-12T04:18:26.901Z,36.10
2022-12-12T04:23:59.255Z,34.45
2022-12-12T04:26:39.112Z,33.47
2022-12-12T04:29:33.565Z,34.10
2022-12-12T04:32:06.079Z,33.00
2022-12-12T04:34:40.525Z,34.13
2022-12-12T04:37:08.323Z,36.00
2022-12-12T04:39:35.669Z,36.47
2022-12-12T04:42:05.088Z,37.92
2022-12-12T04:44:33.040Z,36.05
2022-12-12T04:47:01.139Z,37.63
2022-12-12T04:49:29.276Z,38.58
2022-12-12T04:52:02.820Z,38.65
2022-12-12T04:54:39.859Z,35.85
2022-12-12T04:57:08.734Z,37.28
2022-12-12T04:59:35.530Z,36.15
2022-12-12T05:02:04.988Z,37.60
2022-12-12T05:04:38.154Z,35.53
2022-12-12T05:07:11.155Z,36.58
2022-12-12T05:09:37.656Z,36.42
2022-12-12T05:12:04.378Z,37.13
2022-12-12T05:14:31.452Z,37.35
2022-12-12T05:17:02.446Z,39.70
2022-12-12T05:19:28.887Z,41.50
2022-12-12T05:21:55.252Z,41.40
2022-12-12T05:24:21.619Z,41.60
2022-12-12T05:26:48.094Z,52.13
2022-12-12T05:29:14.496Z,40.72
2022-12-12T05:31:40.839Z,37.30
2022-12-12T05:34:07.227Z,35.40
2022-12-12T05:36:33.591Z,37.53
2022-12-12T05:39:00.001Z,36.80
2022-12-12T05:41:26.443Z,38.60
2022-12-12T05:43:52.803Z,37.40
2022-12-12T05:46:19.223Z,36.63
2022-12-12T05:48:50.367Z,36.08
2022-12-12T05:51:17.896Z,34.15
2022-12-12T05:53:45.107Z,35.65
2022-12-12T05:56:12.484Z,36.30
2022-12-12T05:58:43.005Z,35.85
2022-12-12T06:01:09.716Z,35.25
2022-12-12T06:03:36.331Z,35.80
2022-12-12T06:06:02.965Z,34.50
2022-12-12T06:08:29.726Z,36.25
2022-12-12T06:10:56.255Z,34.83
2022-12-12T06:13:22.625Z,33.83
2022-12-12T06:15:49.049Z,34.38
2022-12-12T06:18:15.505Z,33.58
2022-12-12T06:20:41.874Z,35.60
2022-12-12T06:23:08.230Z,35.45
2022-12-12T06:25:34.596Z,40.33
2022-12-12T06:28:00.977Z,39.83
2022-12-12T06:30:27.412Z,51.97
2022-12-12T06:32:53.822Z,77.90
2022-12-12T06:35:20.256Z,43.75
2022-12-12T06:37:48.345Z,38.47
2022-12-12T06:40:15.408Z,36.75
2022-12-12T06:42:47.709Z,37.67
2022-12-12T06:45:15.254Z,36.35
2022-12-12T06:47:42.019Z,36.92
2022-12-12T06:50:08.815Z,37.33
2022-12-12T06:52:35.182Z,37.22
2022-12-12T06:55:01.592Z,38.25
2022-12-12T06:57:28.618Z,35.45
2022-12-12T06:59:55.116Z,34.35
2022-12-12T07:02:29.055Z,36.67
2022-12-12T07:04:56.365Z,36.67
2022-12-12T07:07:22.765Z,38.92
2022-12-12T07:09:49.178Z,39.83
2022-12-12T07:12:15.567Z,36.08
2022-12-12T07:14:42.000Z,35.80
2022-12-12T07:17:08.419Z,35.20
2022-12-12T07:19:34.821Z,35.85
2022-12-12T07:22:07.513Z,38.97
2022-12-12T07:24:36.015Z,34.47
2022-12-12T07:27:02.426Z,36.30
2022-12-12T07:29:28.864Z,38.03
2022-12-12T07:31:55.290Z,37.75
2022-12-12T07:34:21.714Z,35.65
2022-12-12T07:36:48.108Z,35.65
2022-12-12T07:39:20.169Z,34.00
2022-12-12T07:41:47.239Z,35.05
2022-12-12T07:44:13.596Z,36.92
2022-12-12T07:46:40.030Z,35.90
2022-12-12T07:49:06.551Z,35.85
2022-12-12T07:51:32.991Z,35.58
2022-12-12T07:53:59.374Z,37.53
2022-12-12T07:56:25.790Z,36.53
2022-12-12T07:58:53.413Z,36.55
2022-12-12T08:01:22.210Z,36.70
2022-12-12T08:03:49.123Z,37.53
2022-12-12T08:06:18.913Z,36.45
2022-12-12T08:08:45.964Z,35.70
2022-12-12T08:11:14.163Z,35.78
2022-12-12T08:13:41.316Z,36.08
2022-12-12T08:16:12.243Z,34.55
2022-12-12T08:18:38.657Z,34.05
2022-12-12T08:21:10.456Z,36.30
2022-12-12T08:23:37.570Z,37.38
2022-12-12T08:26:14.862Z,36.00
2022-12-12T08:28:41.914Z,35.75
2022-12-12T08:31:08.908Z,35.53
2022-12-12T08:33:35.356Z,31.15
2022-12-12T08:36:11.591Z,35.50
2022-12-12T08:38:37.956Z,34.47
2022-12-12T08:41:04.403Z,34.97
2022-12-12T08:43:30.758Z,34.45
2022-12-12T08:46:01.507Z,33.17
2022-12-12T08:48:28.232Z,33.75
2022-12-12T08:50:54.756Z,32.88
2022-12-12T08:53:21.123Z,34.88
2022-12-12T08:55:47.529Z,34.08
2022-12-12T08:58:13.948Z,34.75
2022-12-12T09:00:40.503Z,31.98
2022-12-12T09:03:06.934Z,33.70
2022-12-12T09:05:33.969Z,32.78
2022-12-12T09:08:00.387Z,32.70
2022-12-12T09:10:27.744Z,31.13
2022-12-12T09:12:54.902Z,32.30
2022-12-12T09:15:21.559Z,32.00
2022-12-12T09:17:47.959Z,33.22
2022-12-12T09:20:14.314Z,31.75
2022-12-12T09:22:40.667Z,32.67
2022-12-12T09:25:07.280Z,32.15
2022-12-12T09:27:33.692Z,31.73
2022-12-12T09:30:00.066Z,30.00
2022-12-12T09:32:26.518Z,32.53
2022-12-12T09:34:52.897Z,32.50
2022-12-12T09:37:19.630Z,35.47
2022-12-12T09:39:45.991Z,33.22
2022-12-12T09:42:23.503Z,33.28
2022-12-12T09:44:51.473Z,33.05
2022-12-12T09:47:25.501Z,32.08
2022-12-12T09:49:54.269Z,31.92
2022-12-12T09:52:31.126Z,32.05
2022-12-12T09:54:59.453Z,31.70
2022-12-12T09:57:45.874Z,32.47
2022-12-12T10:00:14.554Z,32.70
2022-12-12T10:02:56.193Z,33.28
2022-12-12T10:05:36.923Z,31.47
2022-12-12T10:08:22.721Z,29.90
2022-12-12T10:10:52.159Z,30.33
2022-12-12T10:13:24.971Z,28.73
2022-12-12T10:15:54.232Z,29.33
2022-12-12T10:18:23.604Z,28.48
2022-12-12T10:20:52.325Z,30.88
2022-12-12T10:23:53.514Z,30.20
2022-12-12T10:26:28.506Z,29.13
2022-12-12T10:28:58.796Z,30.52
2022-12-12T10:31:25.127Z,29.67
2022-12-12T10:34:23.731Z,29.48
2022-12-12T10:36:53.448Z,27.02
2022-12-12T10:39:28.795Z,27.17
2022-12-12T10:42:14.466Z,30.15
2022-12-12T10:44:56.189Z,29.08
2022-12-12T10:47:22.954Z,28.45
2022-12-12T10:49:51.135Z,28.27
2022-12-12T10:52:20.441Z,29.33
2022-12-12T10:54:51.165Z,28.50
2022-12-12T10:57:29.061Z,27.63
2022-12-12T10:59:57.755Z,29.63
2022-12-12T11:02:40.934Z,30.02
2022-12-12T11:05:13.897Z,30.75
2022-12-12T11:07:46.732Z,31.90
2022-12-12T11:10:34.363Z,32.35
2022-12-12T11:13:10.258Z,31.92
2022-12-12T11:15:41.052Z,29.67
2022-12-12T11:18:14.577Z,28.80
2022-12-12T11:21:05.678Z,30.88
2022-12-12T11:23:33.455Z,31.02
2022-12-12T11:26:14.220Z,31.38
2022-12-12T11:28:40.694Z,31.20
2022-12-12T11:31:28.577Z,31.55
2022-12-12T11:33:58.272Z,30.70
2022-12-12T11:36:39.450Z,32.00
2022-12-12T11:39:37.357Z,32.13
2022-12-12T11:42:06.126Z,32.47
2022-12-12T11:44:37.146Z,31.25
2022-12-12T11:47:18.735Z,30.13
2022-12-12T11:50:16.315Z,33.20
2022-12-12T11:52:42.774Z,33.50
2022-12-12T11:55:17.512Z,31.70
2022-12-12T11:57:56.617Z,32.88
2022-12-12T12:00:55.060Z,32.30
2022-12-12T12:03:27.588Z,30.90
2022-12-12T12:06:13.354Z,31.60
2022-12-12T12:09:07.212Z,31.73
2022-12-12T12:11:41.036Z,29.25
2022-12-12T12:14:28.904Z,29.55
2022-12-12T12:17:17.047Z,28.73
2022-12-12T12:20:25.472Z,29.35
2022-12-12T12:23:07.154Z,29.77
2022-12-12T12:25:49.182Z,31.05
2022-12-12T12:28:37.588Z,31.25
2022-12-12T12:31:30.611Z,30.60
2022-12-12T12:34:12.256Z,30.58
2022-12-12T12:36:57.694Z,30.00
2022-12-12T12:39:32.638Z,30.88
2022-12-12T12:42:09.197Z,30.05
2022-12-12T12:44:55.272Z,30.02
2022-12-12T12:47:26.694Z,28.10
2022-12-12T12:50:06.209Z,29.58
2022-12-12T12:52:36.555Z,27.00
2022-12-12T12:55:04.328Z,29.02
2022-12-12T12:57:34.855Z,31.83
2022-12-12T13:00:06.729Z,31.17
2022-12-12T13:03:02.613Z,29.83
2022-12-12T13:05:57.029Z,27.48
2022-12-12T13:08:34.723Z,27.95
2022-12-12T13:11:07.110Z,27.52
2022-12-12T13:16:05.915Z,27.90
2022-12-12T13:18:44.439Z,28.52
2022-12-12T13:21:21.890Z,28.15
2022-12-12T13:23:57.060Z,29.98
2022-12-12T13:26:30.031Z,29.08
2022-12-12T13:29:01.573Z,27.95
2022-12-12T13:31:39.814Z,27.63
2022-12-12T13:34:09.118Z,26.45
2022-12-12T13:36:38.691Z,24.27
2022-12-12T13:39:06.855Z,27.42
2022-12-12T13:41:56.473Z,25.17
2022-12-12T13:44:35.454Z,25.83
2022-12-12T13:47:03.668Z,25.35
2022-12-12T13:49:45.245Z,27.45
2022-12-12T13:52:32.256Z,24.37
2022-12-12T13:55:31.085Z,25.70
2022-12-12T13:57:57.488Z,24.63
2022-12-12T14:00:25.493Z,23.83
2022-12-12T14:03:01.276Z,20.95
2022-12-12T14:05:35.596Z,21.30
2022-12-12T14:08:06.113Z,19.98
2022-12-12T14:10:32.403Z,21.33
2022-12-12T14:13:19.540Z,23.00
2022-12-12T14:15:46.916Z,23.58
2022-12-12T14:18:30.303Z,24.73
2022-12-12T14:21:02.212Z,24.35
2022-12-12T14:23:49.704Z,23.63
2022-12-12T14:26:28.134Z,23.02
2022-12-12T14:29:16.316Z,25.13
2022-12-12T14:31:56.251Z,25.02
2022-12-12T14:34:47.492Z,23.42
2022-12-12T14:37:16.874Z,24.80
2022-12-12T14:39:50.837Z,24.95
2022-12-12T14:43:15.604Z,23.90
2022-12-12T14:45:33.977Z,22.10
2022-12-12T14:48:20.037Z,24.40
2022-12-12T14:50:53.982Z,24.15
2022-12-12T14:53:23.120Z,26.90
2022-12-12T14:55:55.779Z,24.55
2022-12-12T14:58:26.280Z,28.88
2022-12-12T15:00:55.647Z,32.58
2022-12-12T15:03:28.544Z,33.60
2022-12-12T15:06:27.206Z,34.25
2022-12-12T15:08:55.140Z,34.22
2022-12-12T15:11:24.107Z,36.72
2022-12-12T15:13:58.289Z,41.78
2022-12-12T15:16:42.818Z,53.75
2022-12-12T15:19:16.121Z,56.92
2022-12-12T15:21:43.532Z,58.33
2022-12-12T15:24:18.074Z,61.65
2022-12-12T15:26:46.129Z,54.45
2022-12-12T15:29:16.588Z,60.72
2022-12-12T15:31:44.632Z,52.75
2022-12-12T15:34:34.531Z,49.17
2022-12-12T15:37:31.277Z,40.50
2022-12-12T15:40:01.324Z,39.97
2022-12-12T15:42:28.269Z,39.55
2022-12-12T15:44:54.837Z,39.15
2022-12-12T15:47:21.393Z,38.85
2022-12-12T15:49:47.779Z,37.28
2022-12-12T15:52:27.117Z,37.60
2022-12-12T15:54:56.255Z,38.10
2022-12-12T15:57:27.401Z,39.65
2022-12-12T15:59:56.433Z,39.15
2022-12-12T16:02:25.124Z,38.58
2022-12-12T16:05:19.013Z,40.22
2022-12-12T16:07:45.704Z,40.00
2022-12-12T16:10:12.126Z,42.22
2022-12-12T16:12:56.527Z,38.75
2022-12-12T16:15:31.487Z,37.95
2022-12-12T16:18:15.709Z,39.40
2022-12-12T16:20:47.551Z,35.45
2022-12-12T16:23:29.062Z,35.08
2022-12-12T16:25:55.874Z,37.27
2022-12-12T16:28:27.549Z,38.85
2022-12-12T16:30:58.610Z,38.03
2022-12-12T16:33:31.633Z,38.90
2022-12-12T16:36:00.681Z,37.75
2022-12-12T16:38:30.346Z,38.97
2022-12-12T16:40:59.924Z,40.35
2022-12-12T16:43:26.611Z,40.45
2022-12-12T16:45:54.618Z,41.38
2022-12-12T16:48:32.533Z,42.63
2022-12-12T16:51:02.140Z,43.10
2022-12-12T16:53:28.529Z,49.60
2022-12-12T16:55:55.196Z,47.90
2022-12-12T16:58:21.586Z,48.63
2022-12-12T17:00:49.005Z,44.38
2022-12-12T17:03:16.749Z,46.58
2022-12-12T17:05:44.817Z,43.88
2022-12-12T17:08:11.388Z,43.78
2022-12-12T17:10:38.334Z,44.50
2022-12-12T17:13:06.261Z,47.33
2022-12-12T17:15:32.775Z,44.78
2022-12-12T17:17:59.963Z,46.55
2022-12-12T17:20:27.298Z,42.65
2022-12-12T17:23:29.056Z,41.35
2022-12-12T17:26:02.529Z,41.67
2022-12-12T17:28:31.908Z,40.15
2022-12-12T17:30:58.334Z,42.28
2022-12-12T17:33:25.488Z,38.22
2022-12-12T17:36:03.420Z,40.47
2022-12-12T17:38:32.637Z,39.15
2022-12-12T17:41:03.165Z,40.72
2022-12-12T17:43:29.723Z,40.67
2022-12-12T17:45:57.862Z,46.47
2022-12-12T17:48:24.356Z,57.85
2022-12-12T17:50:58.898Z,54.25
2022-12-12T17:53:25.427Z,46.08
2022-12-12T17:56:00.862Z,45.05
2022-12-12T17:58:32.023Z,49.38
2022-12-12T18:00:58.634Z,54.80
2022-12-12T18:03:25.056Z,50.30
2022-12-12T18:05:51.525Z,47.40
2022-12-12T18:08:18.266Z,44.25
2022-12-12T18:10:44.760Z,46.85
2022-12-12T18:13:11.142Z,46.50
2022-12-12T18:15:37.586Z,47.03
2022-12-12T18:18:04.034Z,47.92
2022-12-12T18:20:31.559Z,50.05
2022-12-12T18:22:58.039Z,45.83
2022-12-12T18:25:25.126Z,45.28
2022-12-12T18:27:51.536Z,43.63
2022-12-12T18:30:18.082Z,45.83
2022-12-12T18:32:46.153Z,45.17
2022-12-12T18:35:12.510Z,45.70
2022-12-12T18:37:38.947Z,44.95
2022-12-12T18:40:07.012Z,45.17
2022-12-12T18:42:33.392Z,45.42
2022-12-12T18:44:59.812Z,48.38
2022-12-12T18:47:26.404Z,47.22
2022-12-12T18:49:52.773Z,48.83
2022-12-12T18:52:19.162Z,45.90
2022-12-12T18:54:45.556Z,47.13
2022-12-12T18:57:11.922Z,45.15
2022-12-12T18:59:38.562Z,48.20
2022-12-12T19:02:05.014Z,45.30
2022-12-12T19:04:31.487Z,51.33
2022-12-12T19:06:58.632Z,47.80
2022-12-12T19:09:24.992Z,50.03
2022-12-12T19:11:56.860Z,49.50
2022-12-12T19:14:36.057Z,49.25
2022-12-12T19:17:14.566Z,51.63
2022-12-12T19:19:40.939Z,49.75
2022-12-12T19:22:24.823Z,56.83
2022-12-12T19:24:53.741Z,54.10
2022-12-12T19:27:20.125Z,54.13
2022-12-12T19:29:46.557Z,53.30
2022-12-12T19:32:12.964Z,52.17
2022-12-12T19:34:39.740Z,57.60
2022-12-12T19:37:06.127Z,60.53
2022-12-12T19:39:32.544Z,59.58
2022-12-12T19:41:58.910Z,55.35
2022-12-12T19:44:25.284Z,53.92
2022-12-12T19:46:51.676Z,54.25
2022-12-12T19:49:18.080Z,52.78
2022-12-12T19:51:45.550Z,51.15
2022-12-12T19:54:17.637Z,46.33
2022-12-12T19:56:44.347Z,42.40
2022-12-12T19:59:12.775Z,40.35
2022-12-12T20:01:39.369Z,38.97
2022-12-12T20:04:07.152Z,39.90
2022-12-12T20:06:40.917Z,41.63
2022-12-12T20:09:11.653Z,42.22
2022-12-12T20:11:38.316Z,45.50
2022-12-12T20:14:05.002Z,44.80
2022-12-12T20:16:31.492Z,43.40
2022-12-12T20:18:59.635Z,50.75
2022-12-12T20:21:59.725Z,52.58
2022-12-12T20:24:15.544Z,51.30
2022-12-12T20:26:42.534Z,49.47
2022-12-12T20:29:09.266Z,50.70
2022-12-12T20:31:38.278Z,55.22
2022-12-12T20:34:04.916Z,52.45
2022-12-12T20:36:35.340Z,47.53
2022-12-12T20:39:07.123Z,49.08
2022-12-12T20:41:36.241Z,50.58
2022-12-12T20:44:02.785Z,57.80
2022-12-12T20:46:34.420Z,60.85
2022-12-12T20:49:02.616Z,58.28
2022-12-12T20:54:21.397Z,50.80
2022-12-12T20:56:50.959Z,51.42
2022-12-12T20:59:17.337Z,49.75
2022-12-12T21:01:43.883Z,47.95
2022-12-12T21:04:10.512Z,44.58
2022-12-12T21:06:39.435Z,42.63
2022-12-12T21:09:07.815Z,41.95
2022-12-12T21:11:34.455Z,42.22
2022-12-12T21:14:00.923Z,39.67
2022-12-12T21:16:29.954Z,40.17
2022-12-12T21:18:59.113Z,39.95
2022-12-12T21:21:25.986Z,41.78
2022-12-12T21:23:53.065Z,45.08
2022-12-12T21:26:28.219Z,42.65
2022-12-12T21:28:55.630Z,44.40
2022-12-12T21:31:25.620Z,42.35
2022-12-12T21:33:52.491Z,42.80
2022-12-12T21:36:21.665Z,43.90
2022-12-12T21:38:48.919Z,44.85
2022-12-12T21:41:17.613Z,44.85
2022-12-12T21:43:44.595Z,42.42
2022-12-12T21:46:13.212Z,43.42
2022-12-12T21:48:39.875Z,40.90
2022-12-12T21:51:08.325Z,47.20
2022-12-12T21:53:35.379Z,45.67
2022-12-12T21:56:10.918Z,50.50
2022-12-12T21:58:38.474Z,46.85
2022-12-12T22:01:12.292Z,47.67
2022-12-12T22:03:38.982Z,45.13
2022-12-12T22:06:20.210Z,44.75
2022-12-12T22:08:47.526Z,44.15
2022-12-12T22:11:34.012Z,44.97
2022-12-12T22:14:02.122Z,69.78
2022-12-12T22:16:33.283Z,61.10
2022-12-12T22:19:05.584Z,57.22
2022-12-12T22:21:33.597Z,58.00
2022-12-12T22:24:00.489Z,55.95
2022-12-12T22:26:26.775Z,47.45
2022-12-12T22:28:58.203Z,50.33
2022-12-12T22:31:26.938Z,47.95
2022-12-12T22:33:56.319Z,45.03
2022-12-12T22:36:26.281Z,43.35
2022-12-12T22:38:54.045Z,44.22
2022-12-12T22:41:20.523Z,43.78
2022-12-12T22:43:46.949Z,42.30
2022-12-12T22:46:13.685Z,42.30
2022-12-12T22:48:40.055Z,42.28
2022-12-12T22:51:13.878Z,41.00
2022-12-12T22:53:44.167Z,44.20
2022-12-12T22:56:11.220Z,42.22
2022-12-12T22:58:37.698Z,42.85
2022-12-12T23:01:11.604Z,42.88
2022-12-12T23:03:38.335Z,43.47
2022-12-12T23:06:26.128Z,44.72
2022-12-12T23:08:55.681Z,43.53
2022-12-12T23:11:23.346Z,44.22
2022-12-12T23:13:53.555Z,44.38
2022-12-12T23:16:21.537Z,41.95
2022-12-12T23:18:48.278Z,43.10
2022-12-12T23:21:17.600Z,42.97
2022-12-12T23:23:45.860Z,42.72
2022-12-12T23:26:22.999Z,43.58
2022-12-12T23:28:50.056Z,43.80
2022-12-12T23:31:25.877Z,41.22
2022-12-12T23:33:53.643Z,40.10
2022-12-12T23:36:20.334Z,40.95
2022-12-12T23:38:46.750Z,39.45
2022-12-12T23:41:15.092Z,40.30
2022-12-12T23:43:42.265Z,40.25
2022-12-12T23:46:29.763Z,40.22
2022-12-12T23:48:59.310Z,39.45
2022-12-12T23:51:28.024Z,40.47
2022-12-12T23:53:58.915Z,41.33
2022-12-12T23:56:26.256Z,41.47
2022-12-12T23:58:53.463Z,44.15
